Time;durP1;ratioP1;P1;durP2;ratioP2;P2;SDS_P1;SDS_P2;PMS_P1;PMS_P2;Temp;Humidity;BMP_temperature;BMP_pressure;BME280_temperature;BME280_humidity;BME280_pressure;Samples;Min_cycle;Max_cycle;Signal;HPM_P1;HPM_P2
2022/04/13 00:00:47;;;;;;;18.30;5.60;;;12.60;99.90;;;;;;5097817;28;20017;-76
2022/04/13 00:03:13;;;;;;;16.70;5.00;;;12.60;99.90;;;;;;5097143;28;20053;-76
2022/04/13 00:05:39;;;;;;;19.20;7.00;;;12.60;99.90;;;;;;5097216;28;20459;-76
2022/04/13 00:08:06;;;;;;;24.58;6.57;;;12.60;99.90;;;;;;5097052;28;20028;-75
2022/04/13 00:10:36;;;;;;;29.38;6.80;;;12.60;99.90;;;;;;5097024;28;20557;-75
2022/04/13 00:13:02;;;;;;;22.90;5.65;;;12.60;99.90;;;;;;5098090;28;20031;-75
2022/04/13 00:15:28;;;;;;;21.52;6.53;;;12.60;99.90;;;;;;5098299;28;20087;-74
2022/04/13 00:17:54;;;;;;;23.23;7.20;;;12.60;99.90;;;;;;5098220;28;20510;-75
2022/04/13 00:20:22;;;;;;;23.58;5.75;;;12.50;99.90;;;;;;5096699;28;20016;-74
2022/04/13 00:22:48;;;;;;;30.85;5.72;;;12.50;99.90;;;;;;5084826;28;20022;-75
2022/04/13 00:25:14;;;;;;;13.85;5.10;;;12.50;99.90;;;;;;5097977;28;20024;-75
2022/04/13 00:27:40;;;;;;;29.65;6.72;;;12.50;99.90;;;;;;5096618;28;20076;-76
2022/04/13 00:30:07;;;;;;;18.10;6.70;;;12.50;99.90;;;;;;5096508;28;20031;-75
2022/04/13 00:32:35;;;;;;;25.80;5.85;;;12.50;99.90;;;;;;5098187;28;20024;-75
2022/04/13 00:35:04;;;;;;;25.92;5.70;;;12.40;99.90;;;;;;5097803;28;20024;-74
2022/04/13 00:37:31;;;;;;;31.50;7.03;;;12.40;99.90;;;;;;5097886;28;20058;-75
2022/04/13 00:39:57;;;;;;;22.10;6.85;;;12.40;99.90;;;;;;5096619;28;20031;-74
2022/04/13 00:42:23;;;;;;;15.38;6.22;;;12.40;99.90;;;;;;5097512;28;20020;-75
2022/04/13 00:44:48;;;;;;;28.25;7.50;;;12.40;99.90;;;;;;5096407;28;20016;-75
2022/04/13 00:47:14;;;;;;;18.63;5.32;;;12.40;99.90;;;;;;5097507;28;20124;-76
2022/04/13 00:49:41;;;;;;;23.10;5.75;;;12.40;99.90;;;;;;5096286;28;20133;-75
2022/04/13 00:52:07;;;;;;;21.27;5.63;;;12.40;99.90;;;;;;5097552;28;20028;-76
2022/04/13 00:54:34;;;;;;;28.27;7.15;;;12.40;99.90;;;;;;5097677;28;20052;-76
2022/04/13 00:57:08;;;;;;;25.17;6.32;;;12.40;99.90;;;;;;5097660;28;20028;-74
2022/04/13 00:59:37;;;;;;;21.90;6.35;;;12.40;99.90;;;;;;5097296;28;20016;-75
2022/04/13 01:02:08;;;;;;;16.10;5.22;;;12.40;99.90;;;;;;5096186;28;20097;-75
2022/04/13 01:04:36;;;;;;;15.27;4.90;;;12.40;99.90;;;;;;5096320;28;20031;-74
2022/04/13 01:07:06;;;;;;;22.83;5.10;;;12.40;99.90;;;;;;5097600;28;20111;-75
2022/04/13 01:09:32;;;;;;;18.13;5.03;;;12.40;99.90;;;;;;5097762;28;20074;-76
2022/04/13 01:11:58;;;;;;;16.60;5.63;;;12.40;99.90;;;;;;5095319;28;20270;-75
2022/04/13 01:14:24;;;;;;;24.25;4.32;;;12.40;99.90;;;;;;5095635;28;20448;-75
2022/04/13 01:16:50;;;;;;;17.20;4.15;;;12.40;99.90;;;;;;5097264;28;20031;-75
2022/04/13 01:19:17;;;;;;;16.85;6.22;;;12.40;99.90;;;;;;5097225;28;20034;-75
2022/04/13 01:21:58;;;;;;;19.45;6.80;;;12.40;99.90;;;;;;5097178;28;20023;-75
2022/04/13 01:24:25;;;;;;;15.13;4.60;;;12.40;99.90;;;;;;5097369;28;20024;-76
2022/04/13 01:26:51;;;;;;;20.17;5.22;;;12.40;99.90;;;;;;5096884;28;20492;-75
2022/04/13 01:29:17;;;;;;;13.98;5.05;;;12.40;99.90;;;;;;5098331;28;20032;-74
2022/04/13 01:31:44;;;;;;;16.33;4.72;;;12.40;99.90;;;;;;5101442;28;20027;-75
2022/04/13 01:34:11;;;;;;;15.32;4.20;;;12.40;99.90;;;;;;5100144;28;20024;-75
2022/04/13 01:36:37;;;;;;;11.02;4.32;;;12.40;99.90;;;;;;5099618;28;20859;-75
2022/04/13 01:39:05;;;;;;;16.25;4.45;;;12.40;99.90;;;;;;5101564;28;20024;-75
2022/04/13 01:41:31;;;;;;;21.95;5.40;;;12.40;99.90;;;;;;5101021;28;20016;-74
2022/04/13 01:43:57;;;;;;;14.75;4.65;;;12.40;99.90;;;;;;5101125;28;20480;-75
2022/04/13 01:46:23;;;;;;;16.90;4.68;;;12.40;99.90;;;;;;5101004;28;20048;-75
2022/04/13 01:48:49;;;;;;;20.77;6.03;;;12.40;99.90;;;;;;5100091;28;20388;-76
2022/04/13 01:51:17;;;;;;;19.75;5.20;;;12.40;99.90;;;;;;5099655;28;20020;-75
2022/04/13 01:53:43;;;;;;;17.00;4.70;;;12.40;99.90;;;;;;5099790;28;20054;-75
2022/04/13 01:56:09;;;;;;;13.75;4.53;;;12.40;99.90;;;;;;5100752;28;20027;-76
2022/04/13 01:58:35;;;;;;;24.10;5.60;;;12.40;99.90;;;;;;5099197;28;20028;-75
2022/04/13 02:01:01;;;;;;;26.80;5.30;;;12.40;99.90;;;;;;5101244;28;20368;-75
2022/04/13 02:03:27;;;;;;;21.08;5.85;;;12.40;99.90;;;;;;5100949;28;20062;-74
2022/04/13 02:05:54;;;;;;;19.33;4.78;;;12.40;99.90;;;;;;5099426;28;20023;-74
2022/04/13 02:08:23;;;;;;;10.32;4.18;;;12.40;99.90;;;;;;5100124;28;20020;-74
2022/04/13 02:10:51;;;;;;;18.75;5.15;;;12.40;99.90;;;;;;5100484;28;20023;-74
2022/04/13 02:13:21;;;;;;;15.38;4.50;;;12.40;99.90;;;;;;5100242;28;20044;-74
2022/04/13 02:15:48;;;;;;;14.60;5.13;;;12.40;99.90;;;;;;5099429;28;20020;-75
2022/04/13 02:18:15;;;;;;;27.67;5.20;;;12.40;99.90;;;;;;5099325;28;20838;-74
2022/04/13 02:20:41;;;;;;;35.22;5.70;;;12.40;99.90;;;;;;5100464;28;20024;-74
2022/04/13 02:23:07;;;;;;;14.23;4.43;;;12.40;99.90;;;;;;5100220;28;20016;-73
2022/04/13 02:25:35;;;;;;;20.27;6.53;;;12.40;99.90;;;;;;5100453;28;20028;-75
2022/04/13 02:28:05;;;;;;;16.65;5.00;;;12.40;99.90;;;;;;5099994;28;20065;-74
2022/04/13 02:30:32;;;;;;;21.08;5.22;;;12.40;99.90;;;;;;5085734;28;20031;-73
2022/04/13 02:32:58;;;;;;;11.93;4.32;;;12.40;99.90;;;;;;5100309;28;20012;-75
2022/04/13 02:35:24;;;;;;;18.30;5.22;;;12.40;99.90;;;;;;5098802;28;20108;-75
2022/04/13 02:37:50;;;;;;;20.00;4.78;;;12.40;99.90;;;;;;5100250;28;20028;-74
2022/04/13 02:40:16;;;;;;;14.20;3.88;;;12.40;99.90;;;;;;5098821;28;20468;-75
2022/04/13 02:42:42;;;;;;;13.32;4.28;;;12.40;99.90;;;;;;5098730;28;20016;-74
2022/04/13 02:45:09;;;;;;;16.63;4.63;;;12.40;99.90;;;;;;5098531;28;20031;-74
2022/04/13 02:47:35;;;;;;;15.10;4.75;;;12.30;99.90;;;;;;5100266;28;20484;-75
2022/04/13 02:50:03;;;;;;;10.82;3.85;;;12.30;99.90;;;;;;5097807;28;20094;-74
2022/04/13 02:52:29;;;;;;;16.35;3.97;;;12.30;99.90;;;;;;5098794;28;20051;-74
2022/04/13 02:54:59;;;;;;;11.75;4.53;;;12.40;99.90;;;;;;5099675;28;20047;-74
2022/04/13 02:57:25;;;;;;;23.80;5.97;;;12.40;99.90;;;;;;5099207;28;20065;-75
2022/04/13 02:59:51;;;;;;;8.93;4.18;;;12.40;99.90;;;;;;5098220;28;20077;-75
2022/04/13 03:02:19;;;;;;;12.93;4.30;;;12.40;99.90;;;;;;5099669;28;20035;-75
2022/04/13 03:04:49;;;;;;;15.48;4.47;;;12.40;99.90;;;;;;5099536;28;20020;-75
2022/04/13 03:07:16;;;;;;;;;;;12.40;99.90;;;;;;5098729;28;20024;-75
2022/04/13 03:09:42;;;;;;;16.67;3.97;;;12.40;99.90;;;;;;5098608;28;19955;-74
2022/04/13 03:12:10;;;;;;;11.93;3.90;;;12.40;99.90;;;;;;5099268;28;20110;-74
2022/04/13 03:14:36;;;;;;;16.58;4.95;;;12.40;99.90;;;;;;5099598;28;20048;-75
2022/04/13 03:17:02;;;;;;;16.15;4.72;;;12.40;99.90;;;;;;5098313;28;20070;-74
2022/04/13 03:19:28;;;;;;;12.50;4.10;;;12.30;99.90;;;;;;5099444;28;20023;-76
2022/04/13 03:21:54;;;;;;;9.77;4.10;;;12.30;99.90;;;;;;5097704;28;20044;-74
2022/04/13 03:24:24;;;;;;;12.00;4.32;;;12.30;99.90;;;;;;5099351;28;20050;-74
2022/04/13 03:26:51;;;;;;;20.98;5.53;;;12.30;99.90;;;;;;5099157;28;20028;-74
2022/04/13 03:29:18;;;;;;;12.85;4.28;;;12.30;99.90;;;;;;5097887;28;20077;-75
2022/04/13 03:31:44;;;;;;;12.07;5.20;;;12.30;99.90;;;;;;5097987;28;20034;-75
2022/04/13 03:34:10;;;;;;;11.88;3.95;;;12.30;99.90;;;;;;5099105;28;20028;-74
2022/04/13 03:36:42;;;;;;;9.13;4.72;;;12.30;99.90;;;;;;5097798;28;20036;-74
2022/04/13 03:39:08;;;;;;;12.50;4.35;;;12.30;99.90;;;;;;5097992;28;20017;-75
2022/04/13 03:41:37;;;;;;;8.52;3.20;;;12.30;99.90;;;;;;5098751;28;20441;-75
2022/04/13 03:44:04;;;;;;;12.75;4.07;;;12.30;99.90;;;;;;5098750;28;20073;-75
2022/04/13 03:46:30;;;;;;;7.40;3.63;;;12.30;99.90;;;;;;5098655;28;20048;-74
2022/04/13 03:48:56;;;;;;;12.85;3.90;;;12.30;99.90;;;;;;5099115;28;20021;-75
2022/04/13 03:51:23;;;;;;;8.88;3.38;;;12.30;99.90;;;;;;5098359;28;20030;-73
2022/04/13 03:53:48;;;;;;;8.55;3.95;;;12.30;99.90;;;;;;5098634;28;20028;-74
2022/04/13 03:56:14;;;;;;;18.50;4.18;;;12.30;99.90;;;;;;5098592;28;20027;-74
2022/04/13 03:58:40;;;;;;;10.40;3.25;;;12.30;99.90;;;;;;5096876;28;20099;-74
2022/04/13 04:01:10;;;;;;;11.23;3.83;;;12.30;99.90;;;;;;5097454;28;20066;-74
2022/04/13 04:03:37;;;;;;;11.32;4.05;;;12.30;99.90;;;;;;5097469;28;20047;-74
2022/04/13 04:06:04;;;;;;;13.02;4.68;;;12.30;99.90;;;;;;5097093;28;20032;-75
2022/04/13 04:08:34;;;;;;;10.65;3.78;;;12.30;99.90;;;;;;5097134;28;20054;-74
2022/04/13 04:11:00;;;;;;;16.77;4.60;;;12.30;99.90;;;;;;5097173;28;20031;-74
2022/04/13 04:13:27;;;;;;;8.20;4.00;;;12.30;99.90;;;;;;5096954;28;20115;-75
2022/04/13 04:15:53;;;;;;;11.40;5.40;;;12.30;99.90;;;;;;5098352;28;20028;-75
2022/04/13 04:18:18;;;;;;;11.82;3.70;;;12.30;99.90;;;;;;5097188;28;20024;-75
2022/04/13 04:20:44;;;;;;;13.18;4.00;;;12.30;99.90;;;;;;5096750;28;20074;-73
2022/04/13 04:23:10;;;;;;;20.30;4.68;;;12.20;99.90;;;;;;5098138;28;20435;-74
2022/04/13 04:25:36;;;;;;;25.13;4.82;;;12.30;99.90;;;;;;5097856;28;20047;-75
2022/04/13 04:28:03;;;;;;;8.93;3.97;;;12.20;99.90;;;;;;5096596;28;20047;-74
2022/04/13 04:30:31;;;;;;;11.15;4.20;;;12.20;99.90;;;;;;5082896;28;20096;-75
2022/04/13 04:32:57;;;;;;;10.35;3.83;;;12.20;99.90;;;;;;5098123;28;20051;-74
2022/04/13 04:35:23;;;;;;;12.60;4.70;;;12.30;99.90;;;;;;5097751;28;20059;-75
2022/04/13 04:37:49;;;;;;;17.02;4.20;;;12.20;99.90;;;;;;5097969;28;20423;-75
2022/04/13 04:40:15;;;;;;;11.23;4.22;;;12.20;99.90;;;;;;5097740;28;20480;-74
2022/04/13 04:42:49;;;;;;;10.63;5.05;;;12.20;99.90;;;;;;5096063;28;20017;-74
2022/04/13 04:45:19;;;;;;;11.90;3.83;;;12.20;99.90;;;;;;5097547;28;20035;-73
2022/04/13 04:47:49;;;;;;;14.68;4.70;;;12.20;99.90;;;;;;5097880;28;20020;-74
2022/04/13 04:50:19;;;;;;;9.17;4.73;;;12.20;99.90;;;;;;5097920;28;20035;-72
2022/04/13 04:52:46;;;;;;;17.95;4.55;;;12.20;99.90;;;;;;5098202;28;20024;-74
2022/04/13 04:55:16;;;;;;;11.35;3.65;;;12.20;99.90;;;;;;5096623;28;20032;-74
2022/04/13 04:57:43;;;;;;;12.88;4.18;;;12.10;99.90;;;;;;5096106;28;20024;-73
2022/04/13 05:00:12;;;;;;;13.07;4.43;;;12.20;99.90;;;;;;5097715;28;20024;-74
2022/04/13 05:02:38;;;;;;;14.82;4.53;;;12.10;99.90;;;;;;5097652;28;20020;-74
2022/04/13 05:05:05;;;;;;;14.25;6.00;;;12.10;99.90;;;;;;5097270;28;20020;-74
2022/04/13 05:07:31;;;;;;;17.10;4.57;;;12.10;99.90;;;;;;5097884;28;20027;-74
2022/04/13 05:09:58;;;;;;;17.42;4.80;;;12.10;99.90;;;;;;5098150;28;20028;-74
2022/04/13 05:12:24;;;;;;;14.18;3.75;;;12.10;99.90;;;;;;5097050;28;20024;-74
2022/04/13 05:14:52;;;;;;;12.13;4.35;;;12.10;99.90;;;;;;5096180;28;20115;-73
2022/04/13 05:17:18;;;;;;;10.90;4.38;;;12.10;99.90;;;;;;5097227;28;20077;-73
2022/04/13 05:19:44;;;;;;;11.10;4.25;;;12.10;99.90;;;;;;5097357;28;20427;-74
2022/04/13 05:22:10;;;;;;;18.08;4.30;;;12.10;99.90;;;;;;5097487;28;20094;-74
2022/04/13 05:24:36;;;;;;;19.23;5.35;;;12.10;99.90;;;;;;5096691;28;20034;-73
2022/04/13 05:27:02;;;;;;;15.02;4.35;;;12.10;99.90;;;;;;5096922;28;20484;-74
2022/04/13 05:29:28;;;;;;;12.85;4.38;;;12.20;99.90;;;;;;5096270;28;20024;-74
2022/04/13 05:31:54;;;;;;;14.43;4.45;;;12.10;99.90;;;;;;5086614;28;20492;-73
2022/04/13 05:34:20;;;;;;;13.18;4.47;;;12.10;99.90;;;;;;5097025;28;20460;-75
2022/04/13 05:36:45;;;;;;;15.30;4.68;;;12.20;99.90;;;;;;5084119;28;20049;-74
2022/04/13 05:39:11;;;;;;;11.18;5.05;;;12.20;99.90;;;;;;5085388;28;20028;-74
2022/04/13 05:41:39;;;;;;;16.52;4.47;;;12.20;99.90;;;;;;5097064;28;20024;-75
2022/04/13 05:44:05;;;;;;;13.85;4.18;;;12.20;99.90;;;;;;5095836;28;20028;-74
2022/04/13 05:46:33;;;;;;;17.42;5.47;;;12.20;99.90;;;;;;5095450;28;20051;-74
2022/04/13 05:49:00;;;;;;;12.27;4.85;;;12.20;99.90;;;;;;5095788;28;20035;-73
2022/04/13 05:51:26;;;;;;;18.98;5.03;;;12.20;99.90;;;;;;5095921;28;20028;-74
2022/04/13 05:53:52;;;;;;;15.15;5.20;;;12.20;99.90;;;;;;5095730;28;20031;-74
2022/04/13 05:56:18;;;;;;;15.50;5.00;;;12.20;99.90;;;;;;5095761;28;20519;-74
2022/04/13 05:58:44;;;;;;;17.60;5.53;;;12.20;99.90;;;;;;5095279;28;20020;-73
2022/04/13 06:01:10;;;;;;;16.17;4.60;;;12.20;99.90;;;;;;5095840;28;20020;-73
2022/04/13 06:03:36;;;;;;;27.73;5.78;;;12.20;99.90;;;;;;5097132;28;20032;-74
2022/04/13 06:06:02;;;;;;;13.02;5.00;;;12.20;99.90;;;;;;5095729;28;20059;-74
2022/04/13 06:08:28;;;;;;;16.30;5.63;;;12.20;99.90;;;;;;5095857;28;20020;-74
2022/04/13 06:10:54;;;;;;;16.45;5.80;;;12.20;99.90;;;;;;5095493;28;20568;-73
2022/04/13 06:13:19;;;;;;;19.48;5.65;;;12.20;99.90;;;;;;5096467;28;20020;-75
2022/04/13 06:15:46;;;;;;;15.30;5.10;;;12.20;99.90;;;;;;5097324;28;20046;-74
2022/04/13 06:18:12;;;;;;;18.48;6.50;;;12.30;99.90;;;;;;5092009;28;20046;-74
2022/04/13 06:20:38;;;;;;;16.38;5.50;;;12.20;99.90;;;;;;5095866;28;20107;-74
2022/04/13 06:23:04;;;;;;;22.13;5.78;;;12.20;99.90;;;;;;5099143;28;20052;-76
2022/04/13 06:25:30;;;;;;;21.90;5.63;;;12.20;99.90;;;;;;5098498;28;20028;-76
2022/04/13 06:27:56;;;;;;;17.48;5.85;;;12.20;99.90;;;;;;5086153;28;20053;-75
2022/04/13 06:30:22;;;;;;;22.73;5.97;;;12.20;99.90;;;;;;5087543;28;20425;-76
2022/04/13 06:32:48;;;;;;;10.52;4.53;;;12.30;99.90;;;;;;5099094;28;20028;-76
2022/04/13 06:35:16;;;;;;;23.35;5.88;;;12.20;99.90;;;;;;5098743;28;20024;-76
2022/04/13 06:37:44;;;;;;;21.90;6.40;;;12.30;99.90;;;;;;5099228;28;20020;-76
2022/04/13 06:40:11;;;;;;;19.27;5.72;;;12.30;99.90;;;;;;5099289;28;20042;-75
2022/04/13 06:42:39;;;;;;;24.83;5.82;;;12.30;99.90;;;;;;5100112;28;20035;-76
2022/04/13 06:45:12;;;;;;;24.85;6.45;;;12.20;99.90;;;;;;5087391;28;20063;-76
2022/04/13 06:47:39;;;;;;;23.77;5.85;;;12.30;99.90;;;;;;5079950;28;20029;-75
2022/04/13 06:50:07;;;;;;;26.70;6.30;;;12.20;99.90;;;;;;5081144;28;20025;-75
2022/04/13 06:52:34;;;;;;;28.27;7.65;;;12.20;99.90;;;;;;5080336;28;20101;-76
2022/04/13 06:55:00;;;;;;;28.30;6.10;;;12.20;99.90;;;;;;5081204;28;20100;-77
2022/04/13 06:57:26;;;;;;;17.13;7.15;;;12.20;99.90;;;;;;5078032;28;20384;-76
2022/04/13 06:59:52;;;;;;;26.58;6.80;;;12.20;99.90;;;;;;5080859;28;20405;-76
2022/04/13 07:02:18;;;;;;;26.33;6.25;;;12.20;99.90;;;;;;5090644;28;20024;-75
2022/04/13 07:04:44;;;;;;;19.15;6.60;;;12.20;99.90;;;;;;5097808;28;20487;-76
2022/04/13 07:07:10;;;;;;;29.75;5.95;;;12.20;99.90;;;;;;5088849;28;20040;-75
2022/04/13 07:09:36;;;;;;;20.63;6.50;;;12.20;99.90;;;;;;5099033;28;20036;-76
2022/04/13 07:12:02;;;;;;;29.45;6.88;;;12.20;99.90;;;;;;5098179;28;20016;-76
2022/04/13 07:14:31;;;;;;;21.50;6.65;;;12.10;99.90;;;;;;5098204;28;20074;-77
2022/04/13 07:16:57;;;;;;;21.27;7.15;;;12.20;99.90;;;;;;5099519;28;20063;-77
2022/04/13 07:19:23;;;;;;;36.58;6.72;;;12.20;99.90;;;;;;5097712;28;20024;-76
2022/04/13 07:21:49;;;;;;;25.77;6.65;;;12.20;99.90;;;;;;5099301;28;20020;-76
2022/04/13 07:24:15;;;;;;;20.73;6.78;;;12.20;99.90;;;;;;5099432;28;20043;-76
2022/04/13 07:26:41;;;;;;;19.05;6.07;;;12.20;99.90;;;;;;5092166;28;20047;-76
2022/04/13 07:29:07;;;;;;;23.73;5.70;;;12.30;99.90;;;;;;5105428;28;20080;-76
2022/04/13 07:31:33;;;;;;;18.95;5.20;;;12.20;99.90;;;;;;5104041;28;20030;-78
2022/04/13 07:33:59;;;;;;;20.00;6.10;;;12.20;99.90;;;;;;5110914;28;20028;-77
2022/04/13 07:36:25;;;;;;;22.20;6.20;;;12.20;99.90;;;;;;5115836;28;20047;-77
2022/04/13 07:38:51;;;;;;;20.40;5.60;;;12.20;99.90;;;;;;5105745;28;20035;-76
2022/04/13 07:41:17;;;;;;;18.15;5.95;;;12.20;99.90;;;;;;5113095;28;20079;-75
2022/04/13 07:43:44;;;;;;;24.20;7.55;;;12.30;99.90;;;;;;5113151;28;20004;-75
2022/04/13 07:46:10;;;;;;;23.30;7.00;;;12.30;99.90;;;;;;5110245;28;20048;-75
2022/04/13 07:48:36;;;;;;;24.00;7.32;;;12.30;99.90;;;;;;5105176;28;20028;-75
2022/04/13 07:51:02;;;;;;;15.95;5.78;;;12.20;99.90;;;;;;5097314;28;20025;-75
2022/04/13 07:53:31;;;;;;;32.28;6.57;;;12.20;99.90;;;;;;5106207;28;20075;-77
2022/04/13 07:56:00;;;;;;;21.73;5.75;;;12.20;99.90;;;;;;5089947;28;20038;-77
2022/04/13 07:58:26;;;;;;;22.77;6.70;;;12.30;99.90;;;;;;5114789;28;20045;-76
2022/04/13 08:00:52;;;;;;;26.05;6.68;;;12.30;99.90;;;;;;5106353;28;20020;-76
2022/04/13 08:03:18;;;;;;;25.75;6.70;;;12.30;99.90;;;;;;5116001;28;20018;-77
2022/04/13 08:05:47;;;;;;;36.40;8.77;;;12.30;99.90;;;;;;5116909;28;20000;-77
2022/04/13 08:08:15;;;;;;;21.50;6.13;;;12.30;99.90;;;;;;5106373;28;20031;-77
2022/04/13 08:10:45;;;;;;;20.98;6.63;;;12.30;99.90;;;;;;5109706;28;20035;-77
2022/04/13 08:13:11;;;;;;;27.75;7.72;;;12.30;99.90;;;;;;5113821;28;20016;-76
2022/04/13 08:15:40;;;;;;;20.63;6.57;;;12.30;99.90;;;;;;5105942;28;20031;-76
2022/04/13 08:18:09;;;;;;;24.95;7.00;;;12.30;99.90;;;;;;5113828;28;20032;-76
2022/04/13 08:20:35;;;;;;;29.40;8.10;;;12.30;99.90;;;;;;5115966;28;20016;-78
2022/04/13 08:23:03;;;;;;;30.38;7.22;;;12.30;99.90;;;;;;5116926;28;20008;-76
2022/04/13 08:25:30;;;;;;;33.42;6.85;;;12.40;99.90;;;;;;5102423;28;20032;-76
2022/04/13 08:27:56;;;;;;;25.90;7.03;;;12.30;99.90;;;;;;5106417;28;20023;-76
2022/04/13 08:30:25;;;;;;;29.95;7.75;;;12.30;99.90;;;;;;5101181;28;20064;-77
2022/04/13 08:32:51;;;;;;;28.88;8.20;;;12.40;99.90;;;;;;5117377;28;20028;-77
2022/04/13 08:35:17;;;;;;;28.67;9.40;;;12.40;99.90;;;;;;5116160;28;20027;-76
2022/04/13 08:37:43;;;;;;;28.65;7.05;;;12.40;99.90;;;;;;5098466;28;20008;-77
2022/04/13 08:40:11;;;;;;;26.23;7.20;;;12.40;99.90;;;;;;5115287;28;20024;-76
2022/04/13 08:43:03;;;;;;;34.22;7.68;;;12.40;99.90;;;;;;5115020;28;20020;-77
2022/04/13 08:45:35;;;;;;;32.88;8.30;;;12.50;99.90;;;;;;5092426;28;20438;-76
2022/04/13 08:48:05;;;;;;;34.47;9.68;;;12.50;99.90;;;;;;5108198;28;20027;-76
2022/04/13 08:50:31;;;;;;;24.52;7.47;;;12.60;99.90;;;;;;5111002;28;20088;-77
2022/04/13 08:53:00;;;;;;;38.70;8.48;;;12.60;99.90;;;;;;5113149;28;20004;-77
2022/04/13 08:55:30;;;;;;;36.13;7.95;;;12.60;99.90;;;;;;5101106;28;20025;-77
2022/04/13 08:58:43;;;;;;;30.40;7.65;;;12.60;99.90;;;;;;5092821;28;20021;-77
2022/04/13 09:01:20;;;;;;;31.05;8.38;;;12.60;99.90;;;;;;5086455;28;20025;-76
2022/04/13 09:03:51;;;;;;;40.28;7.90;;;12.60;99.90;;;;;;5102664;28;20031;-77
2022/04/13 09:06:22;;;;;;;24.05;8.00;;;12.60;99.90;;;;;;5113907;28;20035;-77
2022/04/13 09:08:50;;;;;;;;;;;12.60;99.90;;;;;;5113205;28;20043;-76
2022/04/13 09:11:17;;;;;;;24.88;7.40;;;12.60;99.90;;;;;;5108042;28;19899;-77
2022/04/13 09:13:44;;;;;;;31.08;8.25;;;12.60;99.90;;;;;;5110703;28;20084;-76
2022/04/13 09:16:11;;;;;;;41.30;8.98;;;12.50;99.90;;;;;;5106224;28;20027;-77
2022/04/13 09:18:37;;;;;;;23.85;7.32;;;12.60;99.90;;;;;;5108888;28;20091;-76
2022/04/13 09:21:03;;;;;;;28.35;7.10;;;12.60;99.90;;;;;;5076469;28;20034;-77
2022/04/13 09:23:30;;;;;;;27.58;7.18;;;12.70;99.90;;;;;;5085227;28;20017;-76
2022/04/13 09:25:58;;;;;;;28.30;7.57;;;12.70;99.90;;;;;;5109114;28;20036;-76
2022/04/13 09:28:27;;;;;;;24.52;8.15;;;12.70;99.90;;;;;;5108985;28;20111;-76
2022/04/13 09:30:56;;;;;;;30.70;8.45;;;12.70;99.90;;;;;;5089976;28;20024;-76
2022/04/13 09:33:23;;;;;;;31.60;8.45;;;12.70;99.90;;;;;;5093215;28;20029;-77
2022/04/13 09:35:49;;;;;;;27.83;8.00;;;12.70;99.90;;;;;;5092092;28;20497;-77
2022/04/13 09:38:16;;;;;;;25.17;9.02;;;12.70;99.90;;;;;;5111231;28;20040;-77
2022/04/13 09:40:42;;;;;;;30.50;6.65;;;12.70;99.90;;;;;;5109962;28;20024;-75
2022/04/13 09:43:16;;;;;;;18.20;6.43;;;12.70;99.90;;;;;;5113678;28;20029;-76
2022/04/13 09:45:44;;;;;;;29.77;7.68;;;12.60;99.90;;;;;;5113309;28;20032;-76
2022/04/13 09:48:17;;;;;;;26.73;7.45;;;12.60;99.90;;;;;;5114106;28;20046;-77
2022/04/13 09:50:45;;;;;;;28.58;7.75;;;12.60;99.90;;;;;;5095949;28;20115;-77
2022/04/13 09:53:13;;;;;;;18.40;6.57;;;12.60;99.90;;;;;;5118458;28;20071;-77
2022/04/13 09:55:40;;;;;;;28.80;8.38;;;12.60;99.90;;;;;;5116503;28;20031;-78
2022/04/13 09:58:15;;;;;;;27.25;6.97;;;12.60;99.90;;;;;;5114524;28;20514;-77
2022/04/13 10:00:42;;;;;;;25.42;7.93;;;12.60;99.90;;;;;;5116439;28;20028;-77
2022/04/13 10:03:11;;;;;;;25.38;7.40;;;12.60;99.90;;;;;;5112432;28;20392;-79
2022/04/13 10:05:41;;;;;;;27.02;7.45;;;12.60;99.90;;;;;;5109029;28;20071;-78
2022/04/13 10:08:09;;;;;;;30.08;7.25;;;12.60;99.90;;;;;;5117328;28;20120;-79
2022/04/13 10:10:39;;;;;;;27.80;7.57;;;12.50;99.90;;;;;;5116903;28;20053;-79
2022/04/13 10:13:05;;;;;;;23.35;6.30;;;12.60;99.90;;;;;;5098962;28;20028;-79
2022/04/13 10:15:31;;;;;;;38.35;9.18;;;12.60;99.90;;;;;;5104840;28;20096;-80
2022/04/13 10:18:00;;;;;;;35.45;6.90;;;12.70;99.90;;;;;;5091036;28;20124;-79
2022/04/13 10:20:47;;;;;;;28.10;7.38;;;12.60;99.90;;;;;;5111536;28;20031;-78
2022/04/13 10:23:14;;;;;;;24.90;6.75;;;12.70;99.90;;;;;;5117321;28;20005;-78
2022/04/13 10:25:41;;;;;;;36.97;7.82;;;12.70;99.90;;;;;;5117487;28;20035;-80
2022/04/13 10:28:12;;;;;;;21.00;7.53;;;12.70;99.90;;;;;;5116901;28;20046;-78
2022/04/13 10:30:42;;;;;;;;;;;12.70;99.90;;;;;;5102174;28;20028;-78
2022/04/13 10:33:14;;;;;;;20.85;6.72;;;12.70;99.90;;;;;;5116927;28;19923;-81
2022/04/13 10:35:43;;;;;;;35.25;8.18;;;12.70;99.90;;;;;;5112697;28;20015;-78
2022/04/13 10:38:12;;;;;;;23.48;8.52;;;12.70;99.90;;;;;;5117697;28;20028;-78
2022/04/13 10:40:41;;;;;;;32.85;9.23;;;12.60;99.90;;;;;;5116619;28;20012;-78
2022/04/13 10:43:09;;;;;;;30.98;7.35;;;12.60;99.90;;;;;;5101797;28;20016;-79
2022/04/13 10:45:45;;;;;;;30.63;8.05;;;12.70;99.90;;;;;;5100031;28;20400;-78
2022/04/13 10:48:18;;;;;;;31.05;8.07;;;12.70;99.90;;;;;;5099980;28;20020;-78
2022/04/13 10:50:54;;;;;;;28.35;7.53;;;12.70;99.90;;;;;;5099926;28;20024;-78
2022/04/13 10:53:30;;;;;;;24.88;7.93;;;12.70;99.90;;;;;;5099908;28;20153;-78
2022/04/13 10:56:01;;;;;;;31.73;7.57;;;12.70;99.90;;;;;;5098672;28;20091;-80
2022/04/13 10:58:52;;;;;;;29.15;8.10;;;12.70;99.90;;;;;;5099455;28;20031;-79
2022/04/13 11:01:20;;;;;;;37.80;8.65;;;12.70;99.90;;;;;;5098713;28;20100;-79
2022/04/13 11:03:47;;;;;;;37.97;9.98;;;12.70;99.90;;;;;;5099312;28;20024;-79
2022/04/13 11:06:14;;;;;;;29.48;9.82;;;12.70;99.90;;;;;;5099849;28;20016;-78
2022/04/13 11:08:48;;;;;;;26.63;9.55;;;12.70;99.90;;;;;;5097719;28;20027;-79
2022/04/13 11:11:20;;;;;;;29.90;8.95;;;12.80;99.90;;;;;;5090789;28;20161;-78
2022/04/13 11:13:50;;;;;;;32.40;9.60;;;12.80;99.90;;;;;;5090721;28;20073;-79
2022/04/13 11:16:21;;;;;;;23.77;8.52;;;12.80;99.90;;;;;;5097477;28;20424;-78
2022/04/13 11:19:05;;;;;;;22.52;8.35;;;12.80;99.90;;;;;;5098811;28;20377;-78
2022/04/13 11:21:36;;;;;;;35.65;8.60;;;12.80;99.90;;;;;;5083832;28;20024;-78
2022/04/13 11:24:02;;;;;;;32.92;8.85;;;12.80;99.90;;;;;;5079325;28;20034;-78
2022/04/13 11:26:34;;;;;;;32.30;8.65;;;12.80;99.90;;;;;;5079082;28;20565;-78
2022/04/13 11:29:09;;;;;;;26.05;8.43;;;12.80;99.90;;;;;;5090723;28;20483;-78
2022/04/13 11:32:00;;;;;;;30.77;8.00;;;12.90;99.90;;;;;;5096559;28;20079;-78
2022/04/13 11:34:40;;;;;;;29.33;8.27;;;12.90;99.90;;;;;;5095964;28;20042;-78
2022/04/13 11:37:08;;;;;;;;;;;12.90;99.90;;;;;;5098534;28;20028;-78
2022/04/13 11:39:52;;;;;;;21.63;6.78;;;12.90;99.90;;;;;;5096925;28;19908;-78
2022/04/13 11:42:27;;;;;;;29.67;9.02;;;12.90;99.90;;;;;;5083950;28;20036;-77
2022/04/13 11:45:16;;;;;;;24.42;8.32;;;12.90;99.90;;;;;;5097481;28;20050;-77
2022/04/13 11:47:53;;;;;;;37.03;8.65;;;13.00;99.90;;;;;;5081693;28;20044;-77
2022/04/13 11:50:23;;;;;;;32.47;8.77;;;13.10;99.90;;;;;;5096530;28;20047;-77
2022/04/13 11:52:53;;;;;;;34.10;8.73;;;13.10;99.90;;;;;;5092660;28;20028;-78
2022/04/13 11:55:21;;;;;;;27.15;7.93;;;13.30;99.90;;;;;;5098927;28;20024;-77
2022/04/13 11:58:08;;;;;;;38.42;8.52;;;13.20;99.90;;;;;;5096851;28;20565;-77
2022/04/13 12:00:45;;;;;;;28.88;8.35;;;13.30;99.90;;;;;;5097355;28;20040;-78
2022/04/13 12:03:15;;;;;;;25.35;7.53;;;13.30;99.90;;;;;;5097375;28;20024;-78
2022/04/13 12:05:42;;;;;;;;;;;13.30;99.90;;;;;;5098803;28;20462;-78
2022/04/13 12:08:21;;;;;;;30.65;8.13;;;13.20;99.90;;;;;;5096896;28;19913;-77
2022/04/13 12:10:50;;;;;;;27.60;7.75;;;13.20;99.90;;;;;;5096809;28;20024;-78
2022/04/13 12:13:16;;;;;;;27.92;7.60;;;13.20;99.90;;;;;;5096543;28;20110;-77
2022/04/13 12:15:50;;;;;;;19.52;7.18;;;13.20;99.90;;;;;;5098075;28;20024;-78
2022/04/13 12:18:17;;;;;;;29.38;7.95;;;13.20;99.90;;;;;;5098266;28;20033;-78
2022/04/13 12:20:44;;;;;;;28.92;8.40;;;13.30;99.90;;;;;;5096685;28;20024;-78
2022/04/13 12:23:26;;;;;;;36.10;9.38;;;13.30;99.90;;;;;;5096931;28;20097;-77
2022/04/13 12:25:56;;;;;;;31.50;8.50;;;13.30;99.90;;;;;;5097925;28;20445;-78
2022/04/13 12:28:23;;;;;;;34.27;14.33;;;13.30;99.90;;;;;;5095164;28;20032;-78
2022/04/13 12:31:07;;;;;;;52.05;21.83;;;13.30;99.90;;;;;;5088479;28;20484;-78
2022/04/13 12:33:34;;;;;;;41.83;12.48;;;13.30;99.90;;;;;;5097936;28;20029;-77
2022/04/13 12:36:02;;;;;;;34.88;14.10;;;13.30;99.90;;;;;;5097883;28;20102;-77
2022/04/13 12:38:32;;;;;;;27.05;8.90;;;13.30;99.90;;;;;;5096419;28;20096;-78
2022/04/13 12:41:07;;;;;;;31.15;8.38;;;13.30;99.90;;;;;;5096805;28;20095;-78
2022/04/13 12:43:36;;;;;;;27.63;8.65;;;13.30;99.90;;;;;;5096131;28;20016;-78